Barnesville, Ohio
Current Conditions -  °F | °C
As of 1:53 PM on Friday 31 Oct 2014 (Local Time) from KHLG Reporting Station
Light Rain Light Rain  
Wind Chill: 40°   Ceiling: 1800
Heat Index: 43°   Visibility: 6mi
Dew Point: 39°   Wind: 5mph
Humidity: 86%   Direction: 230°SW
Pressure: 29.88"   Gusts: NA
Location:  39.99°N, 81.18°W
Report Text: KHLG 311753Z 23004KT 6SM -RA BR FEW013 BKN018 OVC050 06/04 A2988 RMK AO2 SLP127 P0001 60003 T00610039 10072 20056 58018
Loading
Personal Weather Stations






























Interactive Weather Map
Tropical Storm Tracking
New forecast layout! Learn more

10-Day Weather Forecast

Advertisements
Track Severe Weather on mobile